createdAt,value
2022-10-16T00:01:45.437Z,96213.84
2022-10-16T00:04:13.524Z,96214.31
2022-10-16T00:06:41.426Z,96223.28
2022-10-16T00:09:09.490Z,96215.47
2022-10-16T00:11:41.492Z,96209.56
2022-10-16T00:14:12.195Z,96208.31
2022-10-16T00:16:40.586Z,96205.34
2022-10-16T00:19:08.851Z,96213.13
2022-10-16T00:21:36.690Z,96214.63
2022-10-16T00:24:06.998Z,96213.25
2022-10-16T00:26:36.129Z,96208.47
2022-10-16T00:29:05.744Z,96218.19
2022-10-16T00:31:33.553Z,96218.06
2022-10-16T00:34:01.497Z,96217.75
2022-10-16T00:36:29.300Z,96218.75
2022-10-16T00:41:34.476Z,96221.78
2022-10-16T00:44:04.061Z,96230.53
2022-10-16T00:46:39.535Z,96234.56
2022-10-16T00:49:10.235Z,96233.78
2022-10-16T00:51:41.924Z,96227.75
2022-10-16T00:54:12.307Z,96230.81
2022-10-16T00:56:40.103Z,96239.94
2022-10-16T00:59:17.055Z,96234.53
2022-10-16T01:01:46.149Z,96234.97
2022-10-16T01:04:14.038Z,96223.47
2022-10-16T01:06:49.236Z,96223.59
2022-10-16T01:09:23.731Z,96224.03
2022-10-16T01:12:01.952Z,96223.69
2022-10-16T01:14:39.403Z,96223.38
2022-10-16T01:17:13.943Z,96218.28
2022-10-16T01:20:02.390Z,96219.53
2022-10-16T01:22:41.646Z,96204.81
2022-10-16T01:25:18.774Z,96206.75
2022-10-16T01:27:49.180Z,96212.97
2022-10-16T01:30:22.305Z,96203.25
2022-10-16T01:32:54.870Z,96214.31
2022-10-16T01:35:27.251Z,96214.50
2022-10-16T01:38:00.754Z,96209.09
2022-10-16T01:40:30.438Z,96210.66
2022-10-16T01:43:04.713Z,96201.25
2022-10-16T01:45:33.724Z,96205.88
2022-10-16T01:48:05.065Z,96206.22
2022-10-16T01:50:34.871Z,96216.16
2022-10-16T01:53:05.456Z,96212.34
2022-10-16T01:55:38.704Z,96215.75
2022-10-16T01:58:10.998Z,96215.25
2022-10-16T02:00:40.103Z,96220.38
2022-10-16T02:03:10.697Z,96234.28
2022-10-16T02:05:43.258Z,96227.47
2022-10-16T02:08:11.162Z,96233.53
2022-10-16T02:10:40.096Z,96221.09
2022-10-16T02:13:16.330Z,96217.25
2022-10-16T02:15:44.099Z,96212.75
2022-10-16T02:18:12.367Z,96207.19
2022-10-16T02:20:48.755Z,96209.09
2022-10-16T02:23:21.607Z,96209.59
2022-10-16T02:25:51.931Z,96215.81
2022-10-16T02:28:26.754Z,96218.19
2022-10-16T02:30:59.319Z,96216.59
2022-10-16T02:33:28.942Z,96219.75
2022-10-16T02:35:58.567Z,96218.19
2022-10-16T02:38:27.260Z,96230.03
2022-10-16T02:40:55.159Z,96228.59
2022-10-16T02:43:24.638Z,96229.25
2022-10-16T02:45:52.861Z,96230.56
2022-10-16T02:48:20.534Z,96233.13
2022-10-16T02:50:48.218Z,96233.94
2022-10-16T02:53:15.916Z,96239.16
2022-10-16T02:55:43.570Z,96231.69
2022-10-16T02:58:11.459Z,96231.69
2022-10-16T03:00:40.668Z,96234.41
2022-10-16T03:03:08.495Z,96243.34
2022-10-16T03:05:36.138Z,96235.66
2022-10-16T03:08:03.901Z,96241.88
2022-10-16T03:10:31.579Z,96236.44
2022-10-16T03:12:59.261Z,96242.34
2022-10-16T03:15:26.968Z,96235.78
2022-10-16T03:17:56.084Z,96242.03
2022-10-16T03:20:23.771Z,96243.59
2022-10-16T03:22:51.487Z,96241.22
2022-10-16T03:25:19.234Z,96245.88
2022-10-16T03:27:47.020Z,96245.19
2022-10-16T03:30:15.019Z,96256.72
2022-10-16T03:32:42.726Z,96245.06
2022-10-16T03:35:11.979Z,96240.09
2022-10-16T03:37:39.638Z,96232.88
2022-10-16T03:40:08.320Z,96233.69
2022-10-16T03:42:36.191Z,96226.31
2022-10-16T03:45:03.890Z,96236.06
2022-10-16T03:47:31.658Z,96231.91
2022-10-16T03:49:59.350Z,96228.38
2022-10-16T03:52:28.677Z,96234.16
2022-10-16T03:54:56.636Z,96236.06
2022-10-16T03:57:24.706Z,96240.38
2022-10-16T03:59:52.744Z,96246.06
2022-10-16T04:02:20.426Z,96255.00
2022-10-16T04:04:48.163Z,96254.69
2022-10-16T04:07:15.837Z,96248.00
2022-10-16T04:09:44.836Z,96249.44
2022-10-16T04:12:13.088Z,96236.19
2022-10-16T04:14:40.799Z,96247.06
2022-10-16T04:17:08.490Z,96248.31
2022-10-16T04:19:36.239Z,96232.50
2022-10-16T04:22:04.005Z,96239.84
2022-10-16T04:24:31.696Z,96237.91
2022-10-16T04:27:00.866Z,96238.72
2022-10-16T04:29:28.563Z,96244.94
2022-10-16T04:31:56.486Z,96239.06
2022-10-16T04:34:24.259Z,96248.00
2022-10-16T04:36:52.018Z,96237.91
2022-10-16T04:39:19.827Z,96240.63
2022-10-16T04:41:47.549Z,96247.19
2022-10-16T04:44:16.886Z,96251.03
2022-10-16T04:46:45.332Z,96244.69
2022-10-16T04:49:13.018Z,96256.19
2022-10-16T04:51:40.695Z,96251.88
2022-10-16T04:54:08.374Z,96253.03
2022-10-16T04:56:41.127Z,96247.09
2022-10-16T04:59:08.799Z,96250.16
2022-10-16T05:01:37.837Z,96247.78
2022-10-16T05:04:05.524Z,96252.72
2022-10-16T05:06:33.354Z,96249.56
2022-10-16T05:09:01.106Z,96251.69
2022-10-16T05:11:29.019Z,96257.41
2022-10-16T05:13:56.718Z,96255.38
2022-10-16T05:16:24.660Z,96263.53
2022-10-16T05:18:56.319Z,96264.63
2022-10-16T05:21:37.999Z,96251.25
2022-10-16T05:24:05.919Z,96257.66
2022-10-16T05:26:33.631Z,96263.41
2022-10-16T05:29:01.715Z,96266.91
2022-10-16T05:31:29.421Z,96277.31
2022-10-16T05:34:01.671Z,96270.94
2022-10-16T05:36:29.654Z,96276.22
2022-10-16T05:38:57.351Z,96283.09
2022-10-16T05:41:26.691Z,96292.19
2022-10-16T05:43:54.566Z,96294.59
2022-10-16T05:46:22.547Z,96289.66
2022-10-16T05:48:50.471Z,96291.94
2022-10-16T05:51:19.538Z,96305.00
2022-10-16T05:53:47.416Z,96292.56
2022-10-16T05:56:15.196Z,96295.28
2022-10-16T05:58:45.179Z,96298.78
2022-10-16T06:01:16.482Z,96291.31
2022-10-16T06:03:44.974Z,96296.41
2022-10-16T06:06:14.742Z,96297.88
2022-10-16T06:08:46.200Z,96295.94
2022-10-16T06:11:15.387Z,96308.03
2022-10-16T06:13:43.555Z,96302.44
2022-10-16T06:16:12.408Z,96314.09
2022-10-16T06:18:40.799Z,96315.38
2022-10-16T06:21:13.323Z,96308.97
2022-10-16T06:23:41.246Z,96319.97
2022-10-16T06:26:12.569Z,96315.16
2022-10-16T06:28:40.737Z,96316.09
2022-10-16T06:31:11.031Z,96317.50
2022-10-16T06:33:40.281Z,96315.38
2022-10-16T06:36:10.009Z,96326.06
2022-10-16T06:38:38.562Z,96328.59
2022-10-16T06:41:07.699Z,96331.94
2022-10-16T06:43:37.111Z,96329.03
2022-10-16T06:46:08.587Z,96335.06
2022-10-16T06:48:36.433Z,96337.94
2022-10-16T06:51:06.442Z,96338.19
2022-10-16T06:53:40.044Z,96342.34
2022-10-16T06:56:19.274Z,96347.59
2022-10-16T06:58:49.310Z,96345.13
2022-10-16T07:01:18.182Z,96349.38
2022-10-16T07:03:48.335Z,96356.84
2022-10-16T07:06:17.914Z,96367.31
2022-10-16T07:08:47.642Z,96371.69
2022-10-16T07:11:16.926Z,96367.13
2022-10-16T07:13:49.298Z,96374.19
2022-10-16T07:16:24.361Z,96378.88
2022-10-16T07:18:55.370Z,96375.41
2022-10-16T07:21:26.474Z,96378.84
2022-10-16T07:23:54.819Z,96384.34
2022-10-16T07:26:23.081Z,96377.03
2022-10-16T07:28:51.845Z,96387.13
2022-10-16T07:31:22.706Z,96399.84
2022-10-16T07:33:51.364Z,96396.91
2022-10-16T07:36:20.955Z,96393.53
2022-10-16T07:38:48.822Z,96394.88
2022-10-16T07:41:19.260Z,96403.31
2022-10-16T07:43:48.315Z,96393.19
2022-10-16T07:46:17.312Z,96409.91
2022-10-16T07:48:47.854Z,96410.66
2022-10-16T07:51:16.733Z,96413.06
2022-10-16T07:53:44.639Z,96420.91
2022-10-16T07:56:12.906Z,96433.03
2022-10-16T07:58:41.094Z,96424.97
2022-10-16T08:01:10.766Z,96428.78
2022-10-16T08:03:39.675Z,96437.63
2022-10-16T08:06:08.830Z,96437.47
2022-10-16T08:08:36.550Z,96441.41
2022-10-16T08:11:05.017Z,96436.34
2022-10-16T08:13:33.158Z,96436.97
2022-10-16T08:16:01.241Z,96437.22
2022-10-16T08:18:28.931Z,96433.09
2022-10-16T08:21:01.282Z,96432.31
2022-10-16T08:23:30.784Z,96429.88
2022-10-16T08:26:05.857Z,96433.19
2022-10-16T08:28:33.736Z,96437.00
2022-10-16T08:31:08.341Z,96438.34
2022-10-16T08:33:36.931Z,96456.84
2022-10-16T08:36:05.949Z,96460.38
2022-10-16T08:38:35.162Z,96464.78
2022-10-16T08:41:23.837Z,96466.44
2022-10-16T08:44:13.000Z,96472.03
2022-10-16T08:46:50.559Z,96466.97
2022-10-16T08:49:19.155Z,96489.53
2022-10-16T08:51:49.263Z,96477.34
2022-10-16T08:54:27.423Z,96489.91
2022-10-16T08:56:56.568Z,96499.03
2022-10-16T08:59:24.670Z,96506.19
2022-10-16T09:01:54.055Z,96498.34
2022-10-16T09:04:46.451Z,96498.03
2022-10-16T09:07:22.787Z,96492.34
2022-10-16T09:10:14.156Z,96508.66
2022-10-16T09:12:46.396Z,96506.91
2022-10-16T09:15:25.439Z,96507.47
2022-10-16T09:18:02.005Z,96509.09
2022-10-16T09:20:34.835Z,96508.34
2022-10-16T09:23:15.644Z,96502.59
2022-10-16T09:25:48.518Z,96515.22
2022-10-16T09:28:17.160Z,96525.50
2022-10-16T09:30:45.618Z,96524.69
2022-10-16T09:33:15.447Z,96526.25
2022-10-16T09:35:45.601Z,96524.34
2022-10-16T09:38:24.664Z,96523.25
2022-10-16T09:40:58.782Z,96515.81
2022-10-16T09:43:37.437Z,96525.22
2022-10-16T09:46:07.101Z,96526.81
2022-10-16T09:48:40.815Z,96520.09
2022-10-16T09:51:20.598Z,96523.69
2022-10-16T09:53:49.536Z,96526.84
2022-10-16T09:56:26.395Z,96533.03
2022-10-16T09:58:55.436Z,96529.09
2022-10-16T10:01:27.047Z,96531.06
2022-10-16T10:04:01.874Z,96525.56
2022-10-16T10:06:32.207Z,96533.13
2022-10-16T10:09:04.326Z,96528.44
2022-10-16T10:11:49.115Z,96532.03
2022-10-16T10:14:23.347Z,96531.38
2022-10-16T10:16:52.085Z,96531.47
2022-10-16T10:19:21.665Z,96529.88
2022-10-16T10:21:50.636Z,96533.06
2022-10-16T10:24:20.350Z,96539.38
2022-10-16T10:26:59.232Z,96546.22
2022-10-16T10:29:47.908Z,96539.47
2022-10-16T10:32:25.542Z,96549.41
2022-10-16T10:35:09.195Z,96549.84
2022-10-16T10:37:56.123Z,96549.88
2022-10-16T10:40:32.395Z,96562.97
2022-10-16T10:43:07.126Z,96556.03
2022-10-16T10:45:43.496Z,96550.66
2022-10-16T10:48:42.954Z,96545.16
2022-10-16T10:51:15.359Z,96546.66
2022-10-16T10:53:56.938Z,96537.63
2022-10-16T10:56:44.257Z,96545.88
2022-10-16T10:59:45.329Z,96530.94
2022-10-16T11:02:22.131Z,96538.03
2022-10-16T11:05:40.526Z,96527.03
2022-10-16T11:08:13.006Z,96535.69
2022-10-16T11:10:48.813Z,96534.97
2022-10-16T11:13:30.259Z,96527.84
2022-10-16T11:16:01.350Z,96533.41
2022-10-16T11:18:38.519Z,96516.84
2022-10-16T11:21:11.429Z,96527.84
2022-10-16T11:23:45.093Z,96525.50
2022-10-16T11:26:18.632Z,96526.38
2022-10-16T11:28:50.434Z,96528.00
2022-10-16T11:31:24.568Z,96524.06
2022-10-16T11:34:00.991Z,96527.22
2022-10-16T11:36:35.552Z,96526.44
2022-10-16T11:39:10.803Z,96527.22
2022-10-16T11:41:44.775Z,96522.09
2022-10-16T11:44:22.683Z,96524.03
2022-10-16T11:47:24.461Z,96514.56
2022-10-16T11:49:51.530Z,96513.00
2022-10-16T11:52:26.722Z,96510.59
2022-10-16T11:54:59.825Z,96517.72
2022-10-16T11:57:31.461Z,96514.94
2022-10-16T12:00:05.631Z,96514.56
2022-10-16T12:02:52.910Z,96511.78
2022-10-16T12:05:27.174Z,96505.88
2022-10-16T12:08:05.813Z,96507.47
2022-10-16T12:13:32.336Z,96493.16
2022-10-16T12:16:22.573Z,96492.78
2022-10-16T12:19:04.528Z,96492.34
2022-10-16T12:21:33.291Z,96498.63
2022-10-16T12:24:05.119Z,96493.03
2022-10-16T12:26:37.008Z,96497.28
2022-10-16T12:29:28.401Z,96492.25
2022-10-16T12:31:58.473Z,96493.00
2022-10-16T12:34:33.518Z,96497.16
2022-10-16T12:37:12.308Z,96485.09
2022-10-16T12:39:40.221Z,96486.97
2022-10-16T12:42:22.619Z,96490.81
2022-10-16T12:44:50.675Z,96490.78
2022-10-16T12:47:24.382Z,96488.72
2022-10-16T12:49:55.632Z,96489.25
2022-10-16T12:52:29.017Z,96488.53
2022-10-16T12:55:01.658Z,96488.91
2022-10-16T12:57:42.305Z,96485.00
2022-10-16T13:00:22.993Z,96496.94
2022-10-16T13:03:23.533Z,96494.69
2022-10-16T13:06:06.687Z,96490.81
2022-10-16T13:08:57.044Z,96491.72
2022-10-16T13:11:35.694Z,96499.34
2022-10-16T13:14:20.886Z,96502.50
2022-10-16T13:17:02.717Z,96501.00
2022-10-16T13:19:40.779Z,96505.34
2022-10-16T13:22:19.161Z,96499.84
2022-10-16T13:25:02.538Z,96502.69
2022-10-16T13:27:39.429Z,96503.94
2022-10-16T13:30:14.964Z,96504.38
2022-10-16T13:32:47.353Z,96503.19
2022-10-16T13:35:25.595Z,96499.28
2022-10-16T13:38:06.260Z,96498.13
2022-10-16T13:40:35.603Z,96503.25
2022-10-16T13:43:03.798Z,96498.50
2022-10-16T13:45:31.486Z,96505.63
2022-10-16T13:48:06.434Z,96510.41
2022-10-16T13:50:34.471Z,96514.78
2022-10-16T13:53:07.489Z,96507.28
2022-10-16T13:55:35.667Z,96503.34
2022-10-16T13:58:07.861Z,96506.13
2022-10-16T14:00:36.369Z,96505.75
2022-10-16T14:03:07.247Z,96501.44
2022-10-16T14:05:35.524Z,96505.78
2022-10-16T14:08:03.504Z,96512.94
2022-10-16T14:10:34.570Z,96509.78
2022-10-16T14:13:06.325Z,96509.03
2022-10-16T14:15:36.606Z,96520.47
2022-10-16T14:18:05.566Z,96522.44
2022-10-16T14:20:36.139Z,96516.53
2022-10-16T14:23:05.921Z,96513.78
2022-10-16T14:25:35.002Z,96516.16
2022-10-16T14:28:05.318Z,96509.84
2022-10-16T14:30:35.500Z,96519.31
2022-10-16T14:33:05.404Z,96518.94
2022-10-16T14:35:35.321Z,96515.38
2022-10-16T14:38:05.526Z,96518.94
2022-10-16T14:40:37.123Z,96516.91
2022-10-16T14:43:06.916Z,96512.56
2022-10-16T14:45:37.269Z,96513.72
2022-10-16T14:48:19.546Z,96519.25
2022-10-16T14:50:47.826Z,96515.66
2022-10-16T14:53:15.830Z,96525.50
2022-10-16T14:55:45.437Z,96521.50
2022-10-16T14:58:17.135Z,96515.94
2022-10-16T15:00:44.920Z,96515.53
2022-10-16T15:03:12.839Z,96513.13
2022-10-16T15:05:40.625Z,96507.97
2022-10-16T15:08:08.620Z,96509.03
2022-10-16T15:10:41.606Z,96509.00
2022-10-16T15:13:18.399Z,96506.19
2022-10-16T15:15:46.969Z,96514.03
2022-10-16T15:18:20.771Z,96519.88
2022-10-16T15:20:50.893Z,96518.16
2022-10-16T15:23:20.867Z,96515.72
2022-10-16T15:25:51.203Z,96520.00
2022-10-16T15:28:21.640Z,96522.72
2022-10-16T15:30:52.336Z,96517.44
2022-10-16T15:33:21.500Z,96520.50
2022-10-16T15:35:50.085Z,96523.50
2022-10-16T15:38:19.383Z,96515.09
2022-10-16T15:40:47.884Z,96518.91
2022-10-16T15:43:15.765Z,96519.25
2022-10-16T15:45:44.839Z,96525.88
2022-10-16T15:48:14.040Z,96523.75
2022-10-16T15:53:16.023Z,96524.31
2022-10-16T15:55:43.717Z,96518.69
2022-10-16T15:58:11.836Z,96522.16
2022-10-16T16:00:39.639Z,96529.16
2022-10-16T16:03:08.726Z,96528.66
2022-10-16T16:05:44.110Z,96541.66
2022-10-16T16:08:14.301Z,96536.34
2022-10-16T16:10:42.181Z,96538.06
2022-10-16T16:13:09.926Z,96533.13
2022-10-16T16:15:41.233Z,96534.47
2022-10-16T16:18:11.022Z,96534.28
2022-10-16T16:20:38.923Z,96541.59
2022-10-16T16:23:06.596Z,96537.97
2022-10-16T16:25:34.535Z,96543.66
2022-10-16T16:28:02.300Z,96547.03
2022-10-16T16:30:30.055Z,96546.53
2022-10-16T16:32:57.760Z,96542.56
2022-10-16T16:35:26.826Z,96546.91
2022-10-16T16:37:54.520Z,96543.72
2022-10-16T16:40:22.220Z,96539.78
2022-10-16T16:42:50.571Z,96544.47
2022-10-16T16:45:18.377Z,96540.88
2022-10-16T16:47:46.139Z,96538.75
2022-10-16T16:50:13.799Z,96549.59
2022-10-16T16:52:42.873Z,96547.94
2022-10-16T16:55:10.824Z,96548.59
2022-10-16T16:57:38.513Z,96556.09
2022-10-16T17:00:07.088Z,96561.66
2022-10-16T17:02:34.820Z,96566.03
2022-10-16T17:05:02.552Z,96567.53
2022-10-16T17:07:33.643Z,96573.56
2022-10-16T17:10:03.351Z,96573.75
2022-10-16T17:12:31.141Z,96591.97
2022-10-16T17:14:58.863Z,96589.31
2022-10-16T17:17:26.895Z,96593.47
2022-10-16T17:19:54.904Z,96593.28
2022-10-16T17:22:22.651Z,96596.03
2022-10-16T17:24:52.163Z,96598.22
2022-10-16T17:27:22.671Z,96611.75
2022-10-16T17:29:52.843Z,96608.41
2022-10-16T17:32:21.836Z,96610.25
2022-10-16T17:34:49.546Z,96609.41
2022-10-16T17:37:18.310Z,96618.28
2022-10-16T17:39:46.313Z,96617.88
2022-10-16T17:42:14.051Z,96618.09
2022-10-16T17:44:43.159Z,96615.19
2022-10-16T17:47:10.860Z,96620.91
2022-10-16T17:49:38.693Z,96623.53
2022-10-16T17:52:06.386Z,96628.47
2022-10-16T17:54:34.148Z,96628.41
2022-10-16T17:57:01.928Z,96628.09
2022-10-16T17:59:29.635Z,96628.59
2022-10-16T18:01:58.834Z,96625.56
2022-10-16T18:04:26.640Z,96635.56
2022-10-16T18:06:55.945Z,96640.13
2022-10-16T18:09:24.435Z,96643.22
2022-10-16T18:11:59.659Z,96640.91
2022-10-16T18:14:28.666Z,96643.09
2022-10-16T18:16:58.230Z,96641.06
2022-10-16T18:19:26.835Z,96645.50
2022-10-16T18:21:55.665Z,96655.59
2022-10-16T18:24:25.060Z,96659.34
2022-10-16T18:26:56.446Z,96657.09
2022-10-16T18:29:25.187Z,96653.69
2022-10-16T18:31:53.493Z,96656.63
2022-10-16T18:34:23.047Z,96663.13
2022-10-16T18:36:52.816Z,96657.66
2022-10-16T18:39:23.685Z,96661.41
2022-10-16T18:41:55.062Z,96660.13
2022-10-16T18:44:22.776Z,96661.38
2022-10-16T18:46:52.408Z,96659.31
2022-10-16T18:49:20.098Z,96654.44
2022-10-16T18:51:52.709Z,96658.84
2022-10-16T18:54:20.408Z,96655.19
2022-10-16T18:56:48.144Z,96659.19
2022-10-16T18:59:19.382Z,96661.34
2022-10-16T19:01:48.639Z,96659.97
2022-10-16T19:04:18.211Z,96658.72
2022-10-16T19:06:48.272Z,96659.50
2022-10-16T19:09:19.703Z,96658.09
2022-10-16T19:11:47.605Z,96661.69
2022-10-16T19:14:16.829Z,96660.19
2022-10-16T19:16:45.092Z,96673.22
2022-10-16T19:19:15.102Z,96657.97
2022-10-16T19:21:43.514Z,96669.88
2022-10-16T19:24:13.929Z,96669.44
2022-10-16T19:26:43.450Z,96669.28
2022-10-16T19:29:11.582Z,96675.22
2022-10-16T19:31:39.888Z,96669.44
2022-10-16T19:34:07.990Z,96684.84
2022-10-16T19:36:37.827Z,96682.13
2022-10-16T19:39:07.460Z,96683.78
2022-10-16T19:41:37.851Z,96687.25
2022-10-16T19:44:10.164Z,96679.41
2022-10-16T19:46:37.980Z,96681.34
2022-10-16T19:49:07.973Z,96685.22
2022-10-16T19:51:36.631Z,96685.97
2022-10-16T19:54:05.906Z,96686.56
2022-10-16T19:56:35.348Z,96681.97
2022-10-16T19:59:04.428Z,96693.06
2022-10-16T20:01:34.033Z,96701.09
2022-10-16T20:04:02.388Z,96700.91
2022-10-16T20:06:30.104Z,96704.13
2022-10-16T20:08:58.498Z,96699.81
2022-10-16T20:11:29.040Z,96699.81
2022-10-16T20:13:57.408Z,96707.84
2022-10-16T20:16:25.940Z,96709.13
2022-10-16T20:18:55.537Z,96706.91
2022-10-16T20:21:25.251Z,96712.03
2022-10-16T20:23:53.750Z,96712.03
2022-10-16T20:26:24.027Z,96720.41
2022-10-16T20:28:53.652Z,96724.09
2022-10-16T20:31:23.876Z,96727.13
2022-10-16T20:33:52.775Z,96730.50
2022-10-16T20:36:23.761Z,96733.06
2022-10-16T20:38:52.093Z,96738.50
2022-10-16T20:41:20.304Z,96741.53
2022-10-16T20:43:49.730Z,96745.38
2022-10-16T20:46:20.058Z,96744.44
2022-10-16T20:48:48.353Z,96740.63
2022-10-16T20:51:18.216Z,96742.69
2022-10-16T20:53:48.767Z,96741.63
2022-10-16T20:56:17.552Z,96746.56
2022-10-16T20:58:45.543Z,96742.09
2022-10-16T21:01:15.200Z,96748.34
2022-10-16T21:03:43.518Z,96749.47
2022-10-16T21:06:12.218Z,96757.00
2022-10-16T21:08:41.664Z,96756.38
2022-10-16T21:11:15.814Z,96751.91
2022-10-16T21:13:44.130Z,96755.72
2022-10-16T21:16:13.309Z,96763.13
2022-10-16T21:18:44.550Z,96763.13
2022-10-16T21:21:21.034Z,96769.38
2022-10-16T21:23:49.264Z,96772.41
2022-10-16T21:26:20.962Z,96765.38
2022-10-16T21:28:48.711Z,96764.75
2022-10-16T21:31:19.740Z,96765.69
2022-10-16T21:33:47.477Z,96769.06
2022-10-16T21:36:17.106Z,96760.91
2022-10-16T21:38:47.931Z,96764.91
2022-10-16T21:41:19.646Z,96769.84
2022-10-16T21:43:47.788Z,96764.09
2022-10-16T21:46:16.736Z,96771.91
2022-10-16T21:48:44.548Z,96770.97
2022-10-16T21:51:12.985Z,96777.19
2022-10-16T21:53:41.512Z,96782.97
2022-10-16T21:56:14.445Z,96774.81
2022-10-16T21:58:44.207Z,96772.88
2022-10-16T22:01:13.891Z,96779.59
2022-10-16T22:03:41.937Z,96776.56
2022-10-16T22:06:11.249Z,96781.69
2022-10-16T22:08:39.991Z,96778.19
2022-10-16T22:11:10.200Z,96781.22
2022-10-16T22:13:38.406Z,96787.47
2022-10-16T22:16:08.412Z,96789.38
2022-10-16T22:18:37.728Z,96783.16
2022-10-16T22:21:07.117Z,96787.47
2022-10-16T22:23:35.287Z,96788.75
2022-10-16T22:26:04.998Z,96782.03
2022-10-16T22:28:32.997Z,96788.75
2022-10-16T22:31:02.840Z,96793.84
2022-10-16T22:33:31.911Z,96794.66
2022-10-16T22:36:01.609Z,96794.97
2022-10-16T22:38:30.079Z,96784.91
2022-10-16T22:41:02.511Z,96799.28
2022-10-16T22:43:30.281Z,96795.94
2022-10-16T22:46:02.886Z,96791.44
2022-10-16T22:48:31.907Z,96791.31
2022-10-16T22:50:59.619Z,96798.50
2022-10-16T22:53:27.364Z,96795.63
2022-10-16T22:55:55.189Z,96788.72
2022-10-16T22:58:22.989Z,96796.25
2022-10-16T23:00:50.826Z,96794.66
2022-10-16T23:03:19.246Z,96799.59
2022-10-16T23:05:48.370Z,96797.38
2022-10-16T23:08:16.292Z,96794.16
2022-10-16T23:10:45.985Z,96791.59
2022-10-16T23:13:14.828Z,96789.66
2022-10-16T23:15:44.029Z,96790.09
2022-10-16T23:18:12.381Z,96795.53
2022-10-16T23:20:41.434Z,96798.09
2022-10-16T23:23:10.873Z,96796.44
2022-10-16T23:25:38.668Z,96797.41
2022-10-16T23:28:06.402Z,96792.59
2022-10-16T23:30:34.144Z,96804.06
2022-10-16T23:33:01.851Z,96800.84
2022-10-16T23:35:29.597Z,96803.06
2022-10-16T23:37:58.148Z,96800.53
2022-10-16T23:40:27.297Z,96802.75
2022-10-16T23:42:54.980Z,96805.94
2022-10-16T23:45:22.696Z,96806.13
2022-10-16T23:47:50.383Z,96801.19
2022-10-16T23:50:18.284Z,96806.31
2022-10-16T23:52:45.980Z,96808.22
2022-10-16T23:55:13.667Z,96800.88
2022-10-16T23:57:42.762Z,96800.09
